sensor_id;sensor_type;location;lat;lon;timestamp;temperature;humidity
62589;DHT22;58504;48.770;9.148;2023-04-08T00:01:52;22.00;47.50
62589;DHT22;58504;48.770;9.148;2023-04-08T00:04:19;21.90;47.60
62589;DHT22;58504;48.770;9.148;2023-04-08T00:06:47;21.90;47.80
62589;DHT22;58504;48.770;9.148;2023-04-08T00:09:14;21.80;47.90
62589;DHT22;58504;48.770;9.148;2023-04-08T00:11:41;21.80;48.00
62589;DHT22;58504;48.770;9.148;2023-04-08T00:14:07;21.70;48.10
62589;DHT22;58504;48.770;9.148;2023-04-08T00:16:34;21.60;48.10
62589;DHT22;58504;48.770;9.148;2023-04-08T00:19:01;21.60;48.30
62589;DHT22;58504;48.770;9.148;2023-04-08T00:21:28;21.60;48.40
62589;DHT22;58504;48.770;9.148;2023-04-08T00:23:57;21.50;48.50
62589;DHT22;58504;48.770;9.148;2023-04-08T00:26:24;21.40;48.50
62589;DHT22;58504;48.770;9.148;2023-04-08T00:28:50;21.40;48.60
62589;DHT22;58504;48.770;9.148;2023-04-08T00:31:17;21.30;48.70
62589;DHT22;58504;48.770;9.148;2023-04-08T00:33:44;21.30;48.90
62589;DHT22;58504;48.770;9.148;2023-04-08T00:36:11;21.20;48.90
62589;DHT22;58504;48.770;9.148;2023-04-08T00:38:38;21.20;49.00
62589;DHT22;58504;48.770;9.148;2023-04-08T00:41:06;21.20;49.10
62589;DHT22;58504;48.770;9.148;2023-04-08T00:43:32;21.10;49.10
62589;DHT22;58504;48.770;9.148;2023-04-08T00:45:59;21.10;49.20
62589;DHT22;58504;48.770;9.148;2023-04-08T00:48:26;21.10;49.20
62589;DHT22;58504;48.770;9.148;2023-04-08T00:50:53;21.00;49.20
62589;DHT22;58504;48.770;9.148;2023-04-08T00:53:19;21.00;49.30
62589;DHT22;58504;48.770;9.148;2023-04-08T00:55:46;20.90;49.40
62589;DHT22;58504;48.770;9.148;2023-04-08T00:58:15;21.00;49.50
62589;DHT22;58504;48.770;9.148;2023-04-08T01:00:47;20.90;49.50
62589;DHT22;58504;48.770;9.148;2023-04-08T01:03:21;20.80;49.50
62589;DHT22;58504;48.770;9.148;2023-04-08T01:05:57;20.80;49.50
62589;DHT22;58504;48.770;9.148;2023-04-08T01:08:26;20.80;49.60
62589;DHT22;58504;48.770;9.148;2023-04-08T01:10:58;20.80;49.60
62589;DHT22;58504;48.770;9.148;2023-04-08T01:13:31;20.70;49.60
62589;DHT22;58504;48.770;9.148;2023-04-08T01:16:00;20.70;49.70
62589;DHT22;58504;48.770;9.148;2023-04-08T01:18:28;20.70;49.70
62589;DHT22;58504;48.770;9.148;2023-04-08T01:20:57;20.70;49.80
62589;DHT22;58504;48.770;9.148;2023-04-08T01:23:35;20.70;49.80
62589;DHT22;58504;48.770;9.148;2023-04-08T01:26:06;20.70;49.80
62589;DHT22;58504;48.770;9.148;2023-04-08T01:28:33;20.60;49.70
62589;DHT22;58504;48.770;9.148;2023-04-08T01:31:01;20.60;49.80
62589;DHT22;58504;48.770;9.148;2023-04-08T01:33:29;20.60;49.80
62589;DHT22;58504;48.770;9.148;2023-04-08T01:35:58;20.60;49.80
62589;DHT22;58504;48.770;9.148;2023-04-08T01:38:26;20.60;49.80
62589;DHT22;58504;48.770;9.148;2023-04-08T01:40:54;20.60;49.80
62589;DHT22;58504;48.770;9.148;2023-04-08T01:43:23;20.60;49.90
62589;DHT22;58504;48.770;9.148;2023-04-08T01:45:51;20.60;49.90
62589;DHT22;58504;48.770;9.148;2023-04-08T01:48:23;20.60;49.90
62589;DHT22;58504;48.770;9.148;2023-04-08T01:50:51;20.60;50.00
62589;DHT22;58504;48.770;9.148;2023-04-08T01:53:18;20.50;49.90
62589;DHT22;58504;48.770;9.148;2023-04-08T01:55:45;20.50;49.90
62589;DHT22;58504;48.770;9.148;2023-04-08T01:58:18;20.50;50.00
62589;DHT22;58504;48.770;9.148;2023-04-08T02:00:49;20.50;50.00
62589;DHT22;58504;48.770;9.148;2023-04-08T02:03:17;20.50;50.00
62589;DHT22;58504;48.770;9.148;2023-04-08T02:05:45;20.40;49.90
62589;DHT22;58504;48.770;9.148;2023-04-08T02:08:12;20.40;49.90
62589;DHT22;58504;48.770;9.148;2023-04-08T02:10:39;20.40;49.90
62589;DHT22;58504;48.770;9.148;2023-04-08T02:13:07;20.40;50.00
62589;DHT22;58504;48.770;9.148;2023-04-08T02:15:35;20.40;50.00
62589;DHT22;58504;48.770;9.148;2023-04-08T02:18:13;20.40;50.00
62589;DHT22;58504;48.770;9.148;2023-04-08T02:20:43;20.40;50.00
62589;DHT22;58504;48.770;9.148;2023-04-08T02:23:16;20.30;50.00
62589;DHT22;58504;48.770;9.148;2023-04-08T02:25:46;20.30;50.00
62589;DHT22;58504;48.770;9.148;2023-04-08T02:28:14;20.40;50.10
62589;DHT22;58504;48.770;9.148;2023-04-08T02:30:47;20.30;50.10
62589;DHT22;58504;48.770;9.148;2023-04-08T02:33:17;20.30;50.10
62589;DHT22;58504;48.770;9.148;2023-04-08T02:35:47;20.30;50.20
62589;DHT22;58504;48.770;9.148;2023-04-08T02:38:14;20.30;50.20
62589;DHT22;58504;48.770;9.148;2023-04-08T02:40:41;20.20;50.10
62589;DHT22;58504;48.770;9.148;2023-04-08T02:43:08;20.20;50.20
62589;DHT22;58504;48.770;9.148;2023-04-08T02:45:40;20.20;50.20
62589;DHT22;58504;48.770;9.148;2023-04-08T02:48:06;20.20;50.20
62589;DHT22;58504;48.770;9.148;2023-04-08T02:50:35;20.20;50.20
62589;DHT22;58504;48.770;9.148;2023-04-08T02:53:02;20.20;50.30
62589;DHT22;58504;48.770;9.148;2023-04-08T02:55:28;20.20;50.30
62589;DHT22;58504;48.770;9.148;2023-04-08T02:57:55;20.20;50.30
62589;DHT22;58504;48.770;9.148;2023-04-08T03:00:22;20.10;50.20
62589;DHT22;58504;48.770;9.148;2023-04-08T03:02:49;20.10;50.20
62589;DHT22;58504;48.770;9.148;2023-04-08T03:05:15;20.10;50.20
62589;DHT22;58504;48.770;9.148;2023-04-08T03:07:43;20.10;50.30
62589;DHT22;58504;48.770;9.148;2023-04-08T03:10:10;20.10;50.20
62589;DHT22;58504;48.770;9.148;2023-04-08T03:12:37;20.10;50.30
62589;DHT22;58504;48.770;9.148;2023-04-08T03:15:04;20.10;50.30
62589;DHT22;58504;48.770;9.148;2023-04-08T03:17:31;20.10;50.30
62589;DHT22;58504;48.770;9.148;2023-04-08T03:19:59;20.10;50.30
62589;DHT22;58504;48.770;9.148;2023-04-08T03:22:25;20.10;50.30
62589;DHT22;58504;48.770;9.148;2023-04-08T03:24:54;20.00;50.20
62589;DHT22;58504;48.770;9.148;2023-04-08T03:27:20;20.00;50.80
62589;DHT22;58504;48.770;9.148;2023-04-08T03:29:47;20.00;50.20
62589;DHT22;58504;48.770;9.148;2023-04-08T03:32:14;20.00;50.20
62589;DHT22;58504;48.770;9.148;2023-04-08T03:34:41;20.00;50.20
62589;DHT22;58504;48.770;9.148;2023-04-08T03:37:07;20.00;50.30
62589;DHT22;58504;48.770;9.148;2023-04-08T03:39:34;20.00;50.30
62589;DHT22;58504;48.770;9.148;2023-04-08T03:42:02;20.00;50.30
62589;DHT22;58504;48.770;9.148;2023-04-08T03:44:29;20.00;50.30
62589;DHT22;58504;48.770;9.148;2023-04-08T03:46:56;20.00;50.30
62589;DHT22;58504;48.770;9.148;2023-04-08T03:49:23;19.90;50.30
62589;DHT22;58504;48.770;9.148;2023-04-08T03:51:50;20.00;50.30
62589;DHT22;58504;48.770;9.148;2023-04-08T03:54:16;20.00;50.40
62589;DHT22;58504;48.770;9.148;2023-04-08T03:56:43;19.90;50.30
62589;DHT22;58504;48.770;9.148;2023-04-08T03:59:11;19.90;50.30
62589;DHT22;58504;48.770;9.148;2023-04-08T04:01:38;19.90;50.30
62589;DHT22;58504;48.770;9.148;2023-04-08T04:04:05;19.90;50.60
62589;DHT22;58504;48.770;9.148;2023-04-08T04:06:32;19.90;50.30
62589;DHT22;58504;48.770;9.148;2023-04-08T04:08:58;19.90;50.30
62589;DHT22;58504;48.770;9.148;2023-04-08T04:11:25;19.90;50.40
62589;DHT22;58504;48.770;9.148;2023-04-08T04:13:52;19.90;50.40
62589;DHT22;58504;48.770;9.148;2023-04-08T04:16:20;19.80;50.30
62589;DHT22;58504;48.770;9.148;2023-04-08T04:18:47;19.90;50.40
62589;DHT22;58504;48.770;9.148;2023-04-08T04:21:13;19.90;50.40
62589;DHT22;58504;48.770;9.148;2023-04-08T04:23:40;19.80;50.30
62589;DHT22;58504;48.770;9.148;2023-04-08T04:26:07;19.80;50.30
62589;DHT22;58504;48.770;9.148;2023-04-08T04:28:35;19.80;50.30
62589;DHT22;58504;48.770;9.148;2023-04-08T04:31:02;19.80;50.30
62589;DHT22;58504;48.770;9.148;2023-04-08T04:33:30;19.80;50.30
62589;DHT22;58504;48.770;9.148;2023-04-08T04:35:57;19.80;50.30
62589;DHT22;58504;48.770;9.148;2023-04-08T04:38:23;19.80;50.40
62589;DHT22;58504;48.770;9.148;2023-04-08T04:40:51;19.80;50.30
62589;DHT22;58504;48.770;9.148;2023-04-08T04:43:18;19.90;50.20
62589;DHT22;58504;48.770;9.148;2023-04-08T04:45:45;20.00;50.20
62589;DHT22;58504;48.770;9.148;2023-04-08T04:48:11;20.10;50.10
62589;DHT22;58504;48.770;9.148;2023-04-08T04:50:39;20.30;50.00
62589;DHT22;58504;48.770;9.148;2023-04-08T04:53:06;20.40;49.70
62589;DHT22;58504;48.770;9.148;2023-04-08T04:55:33;20.60;49.50
62589;DHT22;58504;48.770;9.148;2023-04-08T04:58:00;20.70;49.20
62589;DHT22;58504;48.770;9.148;2023-04-08T05:00:27;20.80;49.00
62589;DHT22;58504;48.770;9.148;2023-04-08T05:02:53;20.90;48.80
62589;DHT22;58504;48.770;9.148;2023-04-08T05:05:20;21.10;48.70
62589;DHT22;58504;48.770;9.148;2023-04-08T05:07:48;21.20;48.50
62589;DHT22;58504;48.770;9.148;2023-04-08T05:10:15;21.30;48.40
62589;DHT22;58504;48.770;9.148;2023-04-08T05:12:42;21.30;48.10
62589;DHT22;58504;48.770;9.148;2023-04-08T05:15:09;21.40;48.60
62589;DHT22;58504;48.770;9.148;2023-04-08T05:17:36;21.50;47.90
62589;DHT22;58504;48.770;9.148;2023-04-08T05:20:04;21.60;47.80
62589;DHT22;58504;48.770;9.148;2023-04-08T05:22:31;21.70;47.70
62589;DHT22;58504;48.770;9.148;2023-04-08T05:24:59;21.70;47.50
62589;DHT22;58504;48.770;9.148;2023-04-08T05:27:26;21.80;47.50
62589;DHT22;58504;48.770;9.148;2023-04-08T05:29:52;21.80;47.30
62589;DHT22;58504;48.770;9.148;2023-04-08T05:32:19;21.90;47.20
62589;DHT22;58504;48.770;9.148;2023-04-08T05:34:46;22.00;47.20
62589;DHT22;58504;48.770;9.148;2023-04-08T05:37:12;22.00;47.00
62589;DHT22;58504;48.770;9.148;2023-04-08T05:39:39;22.10;47.00
62589;DHT22;58504;48.770;9.148;2023-04-08T05:42:08;22.20;46.90
62589;DHT22;58504;48.770;9.148;2023-04-08T05:44:37;22.20;47.40
62589;DHT22;58504;48.770;9.148;2023-04-08T05:47:05;22.20;46.80
62589;DHT22;58504;48.770;9.148;2023-04-08T05:49:32;22.30;46.70
62589;DHT22;58504;48.770;9.148;2023-04-08T05:52:00;22.30;46.70
62589;DHT22;58504;48.770;9.148;2023-04-08T05:54:26;22.30;46.50
62589;DHT22;58504;48.770;9.148;2023-04-08T05:56:53;22.40;46.50
62589;DHT22;58504;48.770;9.148;2023-04-08T05:59:21;22.40;46.50
62589;DHT22;58504;48.770;9.148;2023-04-08T06:01:48;22.50;46.50
62589;DHT22;58504;48.770;9.148;2023-04-08T06:04:15;22.50;46.40
62589;DHT22;58504;48.770;9.148;2023-04-08T06:06:42;22.50;46.30
62589;DHT22;58504;48.770;9.148;2023-04-08T06:09:09;22.50;46.20
62589;DHT22;58504;48.770;9.148;2023-04-08T06:11:36;22.50;46.20
62589;DHT22;58504;48.770;9.148;2023-04-08T06:14:03;22.60;46.20
62589;DHT22;58504;48.770;9.148;2023-04-08T06:16:31;22.60;46.10
62589;DHT22;58504;48.770;9.148;2023-04-08T06:18:58;22.70;46.20
62589;DHT22;58504;48.770;9.148;2023-04-08T06:21:24;22.70;46.10
62589;DHT22;58504;48.770;9.148;2023-04-08T06:23:52;22.70;46.00
62589;DHT22;58504;48.770;9.148;2023-04-08T06:26:18;22.80;46.00
62589;DHT22;58504;48.770;9.148;2023-04-08T06:28:45;22.80;46.00
62589;DHT22;58504;48.770;9.148;2023-04-08T06:31:12;22.80;46.00
62589;DHT22;58504;48.770;9.148;2023-04-08T06:33:40;22.80;45.90
62589;DHT22;58504;48.770;9.148;2023-04-08T06:36:07;22.80;46.00
62589;DHT22;58504;48.770;9.148;2023-04-08T06:38:34;22.70;45.90
62589;DHT22;58504;48.770;9.148;2023-04-08T06:41:01;22.70;46.00
62589;DHT22;58504;48.770;9.148;2023-04-08T06:43:29;22.70;46.10
62589;DHT22;58504;48.770;9.148;2023-04-08T06:45:56;22.60;46.00
62589;DHT22;58504;48.770;9.148;2023-04-08T06:48:23;22.70;46.20
62589;DHT22;58504;48.770;9.148;2023-04-08T06:50:54;22.70;46.10
62589;DHT22;58504;48.770;9.148;2023-04-08T06:53:22;22.70;46.00
62589;DHT22;58504;48.770;9.148;2023-04-08T06:55:49;22.80;46.50
62589;DHT22;58504;48.770;9.148;2023-04-08T06:58:16;22.90;48.00
62589;DHT22;58504;48.770;9.148;2023-04-08T07:00:43;22.90;48.50
62589;DHT22;58504;48.770;9.148;2023-04-08T07:03:09;22.90;48.40
62589;DHT22;58504;48.770;9.148;2023-04-08T07:05:36;22.90;48.20
62589;DHT22;58504;48.770;9.148;2023-04-08T07:08:05;22.90;48.30
62589;DHT22;58504;48.770;9.148;2023-04-08T07:10:33;22.90;48.30
62589;DHT22;58504;48.770;9.148;2023-04-08T07:12:59;22.90;48.50
62589;DHT22;58504;48.770;9.148;2023-04-08T07:15:26;22.80;48.40
62589;DHT22;58504;48.770;9.148;2023-04-08T07:17:53;22.80;48.60
62589;DHT22;58504;48.770;9.148;2023-04-08T07:20:21;22.80;48.60
62589;DHT22;58504;48.770;9.148;2023-04-08T07:22:48;22.70;48.60
62589;DHT22;58504;48.770;9.148;2023-04-08T07:25:17;22.70;48.70
62589;DHT22;58504;48.770;9.148;2023-04-08T07:27:43;22.70;49.00
62589;DHT22;58504;48.770;9.148;2023-04-08T07:30:11;22.70;49.00
62589;DHT22;58504;48.770;9.148;2023-04-08T07:32:38;22.80;48.90
62589;DHT22;58504;48.770;9.148;2023-04-08T07:35:05;22.80;48.80
62589;DHT22;58504;48.770;9.148;2023-04-08T07:37:33;22.90;48.90
62589;DHT22;58504;48.770;9.148;2023-04-08T07:39:59;22.90;48.70
62589;DHT22;58504;48.770;9.148;2023-04-08T07:42:27;22.90;48.60
62589;DHT22;58504;48.770;9.148;2023-04-08T07:44:54;23.00;48.60
62589;DHT22;58504;48.770;9.148;2023-04-08T07:47:21;23.00;48.50
62589;DHT22;58504;48.770;9.148;2023-04-08T07:49:48;23.00;48.40
62589;DHT22;58504;48.770;9.148;2023-04-08T07:52:15;23.00;48.30
62589;DHT22;58504;48.770;9.148;2023-04-08T07:54:42;23.10;48.40
62589;DHT22;58504;48.770;9.148;2023-04-08T07:57:08;23.10;49.00
62589;DHT22;58504;48.770;9.148;2023-04-08T07:59:37;23.00;48.30
62589;DHT22;58504;48.770;9.148;2023-04-08T08:02:03;23.00;48.30
62589;DHT22;58504;48.770;9.148;2023-04-08T08:04:30;23.00;48.40
62589;DHT22;58504;48.770;9.148;2023-04-08T08:06:57;23.00;48.50
62589;DHT22;58504;48.770;9.148;2023-04-08T08:09:23;22.90;48.50
62589;DHT22;58504;48.770;9.148;2023-04-08T08:11:50;22.90;48.60
62589;DHT22;58504;48.770;9.148;2023-04-08T08:14:17;22.90;48.60
62589;DHT22;58504;48.770;9.148;2023-04-08T08:16:45;22.80;48.60
62589;DHT22;58504;48.770;9.148;2023-04-08T08:19:12;22.80;48.60
62589;DHT22;58504;48.770;9.148;2023-04-08T08:21:39;22.80;48.70
62589;DHT22;58504;48.770;9.148;2023-04-08T08:24:06;22.90;48.80
62589;DHT22;58504;48.770;9.148;2023-04-08T08:26:34;22.90;48.70
62589;DHT22;58504;48.770;9.148;2023-04-08T08:29:02;22.90;48.60
62589;DHT22;58504;48.770;9.148;2023-04-08T08:31:29;23.00;48.50
62589;DHT22;58504;48.770;9.148;2023-04-08T08:33:57;23.00;48.30
62589;DHT22;58504;48.770;9.148;2023-04-08T08:36:24;23.10;48.20
62589;DHT22;58504;48.770;9.148;2023-04-08T08:38:51;23.10;48.20
62589;DHT22;58504;48.770;9.148;2023-04-08T08:41:18;23.20;48.10
62589;DHT22;58504;48.770;9.148;2023-04-08T08:43:45;23.30;48.00
62589;DHT22;58504;48.770;9.148;2023-04-08T08:46:15;23.30;48.10
62589;DHT22;58504;48.770;9.148;2023-04-08T08:48:43;23.30;48.10
62589;DHT22;58504;48.770;9.148;2023-04-08T08:51:12;23.20;48.00
62589;DHT22;58504;48.770;9.148;2023-04-08T08:53:39;23.30;48.10
62589;DHT22;58504;48.770;9.148;2023-04-08T08:56:09;23.40;47.90
62589;DHT22;58504;48.770;9.148;2023-04-08T08:58:37;23.50;47.60
62589;DHT22;58504;48.770;9.148;2023-04-08T09:04:11;23.90;47.00
62589;DHT22;58504;48.770;9.148;2023-04-08T09:06:41;24.00;46.40
62589;DHT22;58504;48.770;9.148;2023-04-08T09:09:08;24.10;46.30
62589;DHT22;58504;48.770;9.148;2023-04-08T09:11:39;24.10;46.40
62589;DHT22;58504;48.770;9.148;2023-04-08T09:14:16;24.00;46.30
62589;DHT22;58504;48.770;9.148;2023-04-08T09:16:43;24.00;46.50
62589;DHT22;58504;48.770;9.148;2023-04-08T09:19:10;24.00;46.50
62589;DHT22;58504;48.770;9.148;2023-04-08T09:21:38;24.00;46.30
62589;DHT22;58504;48.770;9.148;2023-04-08T09:24:07;24.00;46.40
62589;DHT22;58504;48.770;9.148;2023-04-08T09:26:35;24.00;46.40
62589;DHT22;58504;48.770;9.148;2023-04-08T09:29:04;24.00;46.40
62589;DHT22;58504;48.770;9.148;2023-04-08T09:31:32;24.10;46.40
62589;DHT22;58504;48.770;9.148;2023-04-08T09:34:00;24.10;46.40
62589;DHT22;58504;48.770;9.148;2023-04-08T09:36:34;24.10;46.30
62589;DHT22;58504;48.770;9.148;2023-04-08T09:39:01;24.10;46.20
62589;DHT22;58504;48.770;9.148;2023-04-08T09:41:33;24.20;46.30
62589;DHT22;58504;48.770;9.148;2023-04-08T09:44:02;24.20;46.20
62589;DHT22;58504;48.770;9.148;2023-04-08T09:46:32;24.20;46.10
62589;DHT22;58504;48.770;9.148;2023-04-08T09:49:05;24.20;45.90
62589;DHT22;58504;48.770;9.148;2023-04-08T09:51:35;24.30;45.90
62589;DHT22;58504;48.770;9.148;2023-04-08T09:54:09;24.30;46.00
62589;DHT22;58504;48.770;9.148;2023-04-08T09:56:42;24.30;45.90
62589;DHT22;58504;48.770;9.148;2023-04-08T09:59:13;24.30;45.70
62589;DHT22;58504;48.770;9.148;2023-04-08T10:01:44;24.40;45.60
62589;DHT22;58504;48.770;9.148;2023-04-08T10:04:14;24.50;45.60
62589;DHT22;58504;48.770;9.148;2023-04-08T10:06:42;24.40;45.60
62589;DHT22;58504;48.770;9.148;2023-04-08T10:09:09;24.40;45.40
62589;DHT22;58504;48.770;9.148;2023-04-08T10:11:38;24.40;45.30
62589;DHT22;58504;48.770;9.148;2023-04-08T10:14:05;24.40;45.40
62589;DHT22;58504;48.770;9.148;2023-04-08T10:16:32;24.30;45.60
62589;DHT22;58504;48.770;9.148;2023-04-08T10:18:59;24.20;45.80
62589;DHT22;58504;48.770;9.148;2023-04-08T10:21:36;24.10;45.90
62589;DHT22;58504;48.770;9.148;2023-04-08T10:24:07;24.00;45.90
62589;DHT22;58504;48.770;9.148;2023-04-08T10:26:37;24.00;46.20
62589;DHT22;58504;48.770;9.148;2023-04-08T10:29:33;23.90;46.30
62589;DHT22;58504;48.770;9.148;2023-04-08T10:32:00;24.00;46.50
62589;DHT22;58504;48.770;9.148;2023-04-08T10:34:27;23.80;46.40
62589;DHT22;58504;48.770;9.148;2023-04-08T10:36:56;23.80;46.50
62589;DHT22;58504;48.770;9.148;2023-04-08T10:39:26;23.80;46.50
62589;DHT22;58504;48.770;9.148;2023-04-08T10:41:53;23.80;46.50
62589;DHT22;58504;48.770;9.148;2023-04-08T10:44:21;23.80;46.50
62589;DHT22;58504;48.770;9.148;2023-04-08T10:46:50;23.80;46.50
62589;DHT22;58504;48.770;9.148;2023-04-08T10:49:17;23.80;46.60
62589;DHT22;58504;48.770;9.148;2023-04-08T10:51:45;23.70;46.60
62589;DHT22;58504;48.770;9.148;2023-04-08T10:54:13;23.70;46.70
62589;DHT22;58504;48.770;9.148;2023-04-08T10:56:46;23.70;46.80
62589;DHT22;58504;48.770;9.148;2023-04-08T10:59:16;23.60;46.80
62589;DHT22;58504;48.770;9.148;2023-04-08T11:01:45;23.60;47.00
62589;DHT22;58504;48.770;9.148;2023-04-08T11:04:16;23.50;47.00
62589;DHT22;58504;48.770;9.148;2023-04-08T11:06:45;23.40;47.10
62589;DHT22;58504;48.770;9.148;2023-04-08T11:09:13;23.40;47.20
62589;DHT22;58504;48.770;9.148;2023-04-08T11:11:41;23.30;47.20
62589;DHT22;58504;48.770;9.148;2023-04-08T11:14:08;23.20;47.30
62589;DHT22;58504;48.770;9.148;2023-04-08T11:16:36;23.20;47.60
62589;DHT22;58504;48.770;9.148;2023-04-08T11:19:04;23.10;47.60
62589;DHT22;58504;48.770;9.148;2023-04-08T11:21:34;23.10;47.80
62589;DHT22;58504;48.770;9.148;2023-04-08T11:24:05;23.00;47.80
62589;DHT22;58504;48.770;9.148;2023-04-08T11:26:32;23.00;47.90
62589;DHT22;58504;48.770;9.148;2023-04-08T11:28:59;23.00;47.70
62589;DHT22;58504;48.770;9.148;2023-04-08T11:31:27;23.00;47.70
62589;DHT22;58504;48.770;9.148;2023-04-08T11:33:54;23.10;47.70
62589;DHT22;58504;48.770;9.148;2023-04-08T11:36:21;23.10;47.60
62589;DHT22;58504;48.770;9.148;2023-04-08T11:38:52;23.10;47.60
62589;DHT22;58504;48.770;9.148;2023-04-08T11:41:19;23.20;47.60
62589;DHT22;58504;48.770;9.148;2023-04-08T11:43:51;23.30;47.60
62589;DHT22;58504;48.770;9.148;2023-04-08T11:46:17;23.20;47.50
62589;DHT22;58504;48.770;9.148;2023-04-08T11:49:05;23.20;47.40
62589;DHT22;58504;48.770;9.148;2023-04-08T11:51:33;23.30;47.40
62589;DHT22;58504;48.770;9.148;2023-04-08T11:54:03;23.20;47.50
62589;DHT22;58504;48.770;9.148;2023-04-08T11:56:30;23.20;47.40
62589;DHT22;58504;48.770;9.148;2023-04-08T11:58:58;23.20;47.50
62589;DHT22;58504;48.770;9.148;2023-04-08T12:01:25;23.10;47.40
62589;DHT22;58504;48.770;9.148;2023-04-08T12:03:57;23.10;47.50
62589;DHT22;58504;48.770;9.148;2023-04-08T12:06:24;23.10;47.60
62589;DHT22;58504;48.770;9.148;2023-04-08T12:08:52;23.00;47.70
62589;DHT22;58504;48.770;9.148;2023-04-08T12:11:20;23.10;48.00
62589;DHT22;58504;48.770;9.148;2023-04-08T12:13:47;23.10;48.10
62589;DHT22;58504;48.770;9.148;2023-04-08T12:16:15;23.10;48.00
62589;DHT22;58504;48.770;9.148;2023-04-08T12:18:42;23.20;48.10
62589;DHT22;58504;48.770;9.148;2023-04-08T12:21:09;23.20;48.00
62589;DHT22;58504;48.770;9.148;2023-04-08T12:23:35;23.30;47.90
62589;DHT22;58504;48.770;9.148;2023-04-08T12:26:02;23.30;47.80
62589;DHT22;58504;48.770;9.148;2023-04-08T12:28:30;23.40;48.00
62589;DHT22;58504;48.770;9.148;2023-04-08T12:30:59;23.40;48.10
62589;DHT22;58504;48.770;9.148;2023-04-08T12:33:26;23.40;48.10
62589;DHT22;58504;48.770;9.148;2023-04-08T12:35:52;23.40;48.00
62589;DHT22;58504;48.770;9.148;2023-04-08T12:38:19;23.40;47.90
62589;DHT22;58504;48.770;9.148;2023-04-08T12:40:46;23.40;47.90
62589;DHT22;58504;48.770;9.148;2023-04-08T12:43:13;23.40;47.90
62589;DHT22;58504;48.770;9.148;2023-04-08T12:45:41;23.30;47.90
62589;DHT22;58504;48.770;9.148;2023-04-08T12:48:09;23.30;47.90
62589;DHT22;58504;48.770;9.148;2023-04-08T12:50:35;23.30;47.90
62589;DHT22;58504;48.770;9.148;2023-04-08T12:53:02;23.30;48.00
62589;DHT22;58504;48.770;9.148;2023-04-08T12:55:29;23.30;47.80
62589;DHT22;58504;48.770;9.148;2023-04-08T12:57:55;23.10;46.10
62589;DHT22;58504;48.770;9.148;2023-04-08T13:00:23;23.00;44.30
62589;DHT22;58504;48.770;9.148;2023-04-08T13:02:52;23.00;44.10
62589;DHT22;58504;48.770;9.148;2023-04-08T13:05:18;22.90;45.10
62589;DHT22;58504;48.770;9.148;2023-04-08T13:07:45;22.80;45.90
62589;DHT22;58504;48.770;9.148;2023-04-08T13:10:12;22.80;46.50
62589;DHT22;58504;48.770;9.148;2023-04-08T13:12:39;22.70;46.90
62589;DHT22;58504;48.770;9.148;2023-04-08T13:15:07;22.60;47.10
62589;DHT22;58504;48.770;9.148;2023-04-08T13:17:34;22.60;47.40
62589;DHT22;58504;48.770;9.148;2023-04-08T13:20:03;22.50;47.50
62589;DHT22;58504;48.770;9.148;2023-04-08T13:22:30;22.50;47.70
62589;DHT22;58504;48.770;9.148;2023-04-08T13:24:58;22.40;47.70
62589;DHT22;58504;48.770;9.148;2023-04-08T13:27:26;22.40;47.90
62589;DHT22;58504;48.770;9.148;2023-04-08T13:29:52;22.30;48.00
62589;DHT22;58504;48.770;9.148;2023-04-08T13:32:19;22.30;48.10
62589;DHT22;58504;48.770;9.148;2023-04-08T13:34:46;22.20;48.20
62589;DHT22;58504;48.770;9.148;2023-04-08T13:37:14;22.20;48.30
62589;DHT22;58504;48.770;9.148;2023-04-08T13:39:41;22.20;48.40
62589;DHT22;58504;48.770;9.148;2023-04-08T13:42:07;22.10;48.50
62589;DHT22;58504;48.770;9.148;2023-04-08T13:44:34;22.10;48.60
62589;DHT22;58504;48.770;9.148;2023-04-08T13:47:01;22.10;48.70
62589;DHT22;58504;48.770;9.148;2023-04-08T13:49:28;22.00;48.70
62589;DHT22;58504;48.770;9.148;2023-04-08T13:51:55;22.00;48.80
62589;DHT22;58504;48.770;9.148;2023-04-08T13:54:23;22.00;48.90
62589;DHT22;58504;48.770;9.148;2023-04-08T13:56:50;22.00;49.00
62589;DHT22;58504;48.770;9.148;2023-04-08T13:59:17;21.90;49.00
62589;DHT22;58504;48.770;9.148;2023-04-08T14:01:44;21.90;49.00
62589;DHT22;58504;48.770;9.148;2023-04-08T14:04:11;21.90;49.00
62589;DHT22;58504;48.770;9.148;2023-04-08T14:06:37;21.90;49.10
62589;DHT22;58504;48.770;9.148;2023-04-08T14:09:04;21.90;49.10
62589;DHT22;58504;48.770;9.148;2023-04-08T14:11:33;21.90;49.10
62589;DHT22;58504;48.770;9.148;2023-04-08T14:13:59;21.80;49.10
62589;DHT22;58504;48.770;9.148;2023-04-08T14:16:26;21.80;49.20
62589;DHT22;58504;48.770;9.148;2023-04-08T14:18:55;21.80;49.20
62589;DHT22;58504;48.770;9.148;2023-04-08T14:21:22;21.80;49.20
62589;DHT22;58504;48.770;9.148;2023-04-08T14:23:49;21.80;49.20
62589;DHT22;58504;48.770;9.148;2023-04-08T14:26:17;21.80;49.30
62589;DHT22;58504;48.770;9.148;2023-04-08T14:28:45;21.80;49.50
62589;DHT22;58504;48.770;9.148;2023-04-08T14:31:13;21.70;49.40
62589;DHT22;58504;48.770;9.148;2023-04-08T14:33:40;21.70;49.40
62589;DHT22;58504;48.770;9.148;2023-04-08T14:36:06;21.70;49.40
62589;DHT22;58504;48.770;9.148;2023-04-08T14:38:33;21.70;49.50
62589;DHT22;58504;48.770;9.148;2023-04-08T14:41:00;21.70;49.50
62589;DHT22;58504;48.770;9.148;2023-04-08T14:43:27;21.60;49.50
62589;DHT22;58504;48.770;9.148;2023-04-08T14:45:56;21.60;49.60
62589;DHT22;58504;48.770;9.148;2023-04-08T14:48:23;21.60;49.60
62589;DHT22;58504;48.770;9.148;2023-04-08T14:50:50;21.50;49.60
62589;DHT22;58504;48.770;9.148;2023-04-08T14:53:18;21.50;49.60
62589;DHT22;58504;48.770;9.148;2023-04-08T14:55:44;21.50;49.50
62589;DHT22;58504;48.770;9.148;2023-04-08T14:58:11;21.50;49.50
62589;DHT22;58504;48.770;9.148;2023-04-08T15:00:41;21.40;49.50
62589;DHT22;58504;48.770;9.148;2023-04-08T15:03:11;21.40;49.70
62589;DHT22;58504;48.770;9.148;2023-04-08T15:05:38;21.40;49.80
62589;DHT22;58504;48.770;9.148;2023-04-08T15:08:06;21.30;49.80
62589;DHT22;58504;48.770;9.148;2023-04-08T15:10:32;21.30;49.90
62589;DHT22;58504;48.770;9.148;2023-04-08T15:12:59;21.30;50.00
62589;DHT22;58504;48.770;9.148;2023-04-08T15:15:26;21.30;50.00
62589;DHT22;58504;48.770;9.148;2023-04-08T15:17:53;21.20;49.80
62589;DHT22;58504;48.770;9.148;2023-04-08T15:20:21;21.20;49.90
62589;DHT22;58504;48.770;9.148;2023-04-08T15:22:48;21.20;50.00
62589;DHT22;58504;48.770;9.148;2023-04-08T15:25:14;21.20;50.10
62589;DHT22;58504;48.770;9.148;2023-04-08T15:27:41;21.20;50.00
62589;DHT22;58504;48.770;9.148;2023-04-08T15:30:08;21.20;50.10
62589;DHT22;58504;48.770;9.148;2023-04-08T15:32:35;21.10;50.10
62589;DHT22;58504;48.770;9.148;2023-04-08T15:35:03;21.10;50.10
62589;DHT22;58504;48.770;9.148;2023-04-08T15:37:31;21.10;50.20